Time;durP1;ratioP1;P1;durP2;ratioP2;P2;SDS_P1;SDS_P2;PMS_P1;PMS_P2;Temp;Humidity;BMP_temperature;BMP_pressure;BME280_temperature;BME280_humidity;BME280_pressure;Samples;Min_cycle;Max_cycle;Signal;HPM_P1;HPM_P2
2021/03/21 00:00:47;;;;;;;9.15;5.95;;;;;;;7.90;37.62;102044.53;5050733;28;20041;-72
2021/03/21 00:03:15;;;;;;;9.27;5.43;;;;;;;7.88;37.36;102030.16;5048650;28;20475;-72
2021/03/21 00:05:44;;;;;;;9.43;5.78;;;;;;;7.88;37.55;102038.31;5028447;28;20985;-72
2021/03/21 00:08:14;;;;;;;9.23;5.88;;;;;;;7.88;37.48;102032.88;5051906;28;20045;-73
2021/03/21 00:10:41;;;;;;;10.02;6.30;;;;;;;7.86;37.52;102034.78;5045146;28;20048;-72
2021/03/21 00:13:09;;;;;;;9.43;6.22;;;;;;;7.84;37.61;102037.59;5040400;28;20038;-72
2021/03/21 00:15:36;;;;;;;10.18;6.72;;;;;;;7.84;37.66;102039.44;5046341;28;20041;-73
2021/03/21 00:18:04;;;;;;;10.32;6.65;;;;;;;7.84;37.85;102040.31;5032431;28;20112;-72
2021/03/21 00:20:35;;;;;;;11.90;6.82;;;;;;;7.85;38.24;102035.75;5038375;28;20048;-73
2021/03/21 00:23:04;;;;;;;10.63;7.13;;;;;;;7.84;38.17;102031.28;5040894;28;20084;-73
2021/03/21 00:25:35;;;;;;;9.52;6.60;;;;;;;7.84;38.43;102029.44;5054684;28;20071;-73
2021/03/21 00:28:04;;;;;;;10.63;6.80;;;;;;;7.84;38.05;102031.28;5046719;28;20044;-73
2021/03/21 00:30:34;;;;;;;11.27;6.85;;;;;;;7.83;38.19;102030.38;5033429;28;20045;-73
2021/03/21 00:33:02;;;;;;;11.35;7.45;;;;;;;7.83;38.35;102029.50;5040118;28;20128;-72
2021/03/21 00:35:31;;;;;;;9.98;6.50;;;;;;;7.83;38.39;102022.22;5040182;28;20152;-73
2021/03/21 00:38:00;;;;;;;10.80;7.00;;;;;;;7.84;38.40;102021.25;5048686;28;20032;-73
2021/03/21 00:40:30;;;;;;;11.43;7.28;;;;;;;7.84;38.58;102025.81;5047323;28;20130;-72
2021/03/21 00:42:58;;;;;;;12.40;8.05;;;;;;;7.82;38.47;102027.75;5048733;28;20054;-73
2021/03/21 00:45:26;;;;;;;13.07;7.53;;;;;;;7.82;38.42;102027.75;5013661;28;20107;-72
2021/03/21 00:47:55;;;;;;;12.50;7.88;;;;;;;7.80;38.61;102038.75;5043263;28;20132;-72
2021/03/21 00:50:27;;;;;;;13.65;8.68;;;;;;;7.80;39.42;102040.59;5047851;28;20239;-72
2021/03/21 00:52:55;;;;;;;13.52;8.82;;;;;;;7.77;39.05;102040.75;5050552;28;20052;-73
2021/03/21 00:55:23;;;;;;;13.15;8.55;;;;;;;7.75;38.73;102035.38;5052073;28;20045;-72
2021/03/21 00:57:53;;;;;;;12.95;8.45;;;;;;;7.74;39.00;102030.91;5057781;28;20044;-73
2021/03/21 01:00:24;;;;;;;12.60;8.35;;;;;;;7.74;38.96;102038.19;5056808;28;20037;-73
2021/03/21 01:02:52;;;;;;;14.50;8.95;;;;;;;7.71;39.23;102028.38;5049564;28;20043;-73
2021/03/21 01:05:22;;;;;;;16.27;10.02;;;;;;;7.71;39.29;102032.94;5044010;28;20041;-72
2021/03/21 01:07:51;;;;;;;13.45;9.30;;;;;;;7.70;39.31;102023.00;5033963;28;20047;-73
2021/03/21 01:10:19;;;;;;;14.10;8.43;;;;;;;7.66;39.34;102019.56;5041394;28;20065;-73
2021/03/21 01:12:50;;;;;;;13.07;8.32;;;;;;;7.66;39.81;102011.38;5052149;28;20068;-73
2021/03/21 01:15:19;;;;;;;13.45;8.68;;;;;;;7.63;39.60;102008.84;5045926;28;20090;-72
2021/03/21 01:17:47;;;;;;;12.88;7.93;;;;;;;7.62;39.42;102003.50;5048893;28;20575;-73
2021/03/21 01:20:14;;;;;;;13.68;8.85;;;;;;;7.59;39.54;102006.38;5049210;28;20059;-73
2021/03/21 01:22:42;;;;;;;11.98;8.10;;;;;;;7.58;39.53;101988.28;5048123;28;20036;-73
2021/03/21 01:25:11;;;;;;;12.45;8.05;;;;;;;7.58;39.76;101991.88;5050396;28;20484;-73
2021/03/21 01:27:52;;;;;;;12.65;8.43;;;;;;;7.55;39.78;101978.44;5054052;28;20041;-73
2021/03/21 01:30:23;;;;;;;14.65;9.13;;;;;;;7.56;40.12;101969.31;5055270;28;20488;-73
2021/03/21 01:32:50;;;;;;;14.88;9.48;;;;;;;7.54;39.76;101957.63;5047643;28;20499;-73
2021/03/21 01:35:18;;;;;;;12.80;8.50;;;;;;;7.54;40.16;101960.34;5045919;28;20095;-72
2021/03/21 01:38:11;;;;;;;13.60;8.25;;;;;;;7.51;41.17;101949.63;5045507;28;20045;-72
2021/03/21 01:40:38;;;;;;;14.70;8.20;;;;;;;7.47;40.02;101942.59;5033874;28;20038;-72
2021/03/21 01:43:11;;;;;;;11.70;7.25;;;;;;;7.52;40.68;101939.59;5043846;28;20122;-73
2021/03/21 01:45:42;;;;;;;13.18;8.10;;;;;;;7.52;40.57;101937.78;5042774;28;20041;-73
2021/03/21 01:48:21;;;;;;;13.60;8.88;;;;;;;7.53;41.55;101911.41;5045394;28;20041;-72
2021/03/21 01:50:53;;;;;;;11.85;7.63;;;;;;;7.50;40.62;101905.19;5049130;28;20468;-73
2021/03/21 01:53:23;;;;;;;12.85;8.07;;;;;;;7.50;40.38;101905.19;5059915;28;20036;-72
2021/03/21 01:55:51;;;;;;;11.90;7.60;;;;;;;7.50;40.13;101896.13;5051942;28;20053;-73
2021/03/21 01:58:21;;;;;;;12.95;7.85;;;;;;;7.50;40.33;101882.50;5063146;28;20076;-72
2021/03/21 02:00:52;;;;;;;13.52;7.88;;;;;;;7.51;40.75;101881.56;5042963;28;20061;-72
2021/03/21 02:03:20;;;;;;;15.35;8.57;;;;;;;7.50;40.14;101885.25;5043509;28;20040;-73
2021/03/21 02:05:50;;;;;;;12.05;7.90;;;;;;;7.50;40.25;101888.84;5039856;28;20073;-72
2021/03/21 02:08:34;;;;;;;14.32;8.18;;;;;;;7.52;41.52;101888.75;5049012;28;20037;-72
2021/03/21 02:11:09;;;;;;;13.73;7.95;;;;;;;7.50;41.05;101893.41;5048817;28;20051;-72
2021/03/21 02:13:43;;;;;;;13.15;7.55;;;;;;;7.51;40.95;101881.56;5046049;28;20052;-72
2021/03/21 02:16:18;;;;;;;11.68;7.63;;;;;;;7.50;41.27;101877.94;5028208;28;20053;-73
2021/03/21 02:18:52;;;;;;;12.30;7.90;;;;;;;7.52;40.87;101887.88;5035727;28;20136;-73
2021/03/21 02:21:35;;;;;;;11.38;6.78;;;;;;;7.53;41.52;101879.63;5024250;28;20052;-72
2021/03/21 02:24:41;;;;;;;10.32;6.72;;;;;;;7.49;41.45;101878.91;5042818;28;20634;-72
2021/03/21 02:27:18;;;;;;;10.65;6.38;;;;;;;7.50;41.26;101879.78;5036324;28;20053;-72
2021/03/21 02:29:56;;;;;;;11.85;6.63;;;;;;;7.51;41.37;101876.09;5054265;28;20040;-73
2021/03/21 02:32:29;;;;;;;10.82;6.78;;;;;;;7.51;41.03;101884.28;4996226;28;20386;-73
2021/03/21 02:35:04;;;;;;;11.98;6.70;;;;;;;7.52;41.30;101883.31;5053438;28;20051;-72
2021/03/21 02:37:38;;;;;;;9.15;5.70;;;;;;;7.52;41.18;101874.25;5047444;28;20427;-72
2021/03/21 02:40:16;;;;;;;10.20;6.18;;;;;;;7.52;41.33;101855.22;5046021;28;20115;-73
2021/03/21 02:42:48;;;;;;;10.43;6.47;;;;;;;7.50;41.10;101858.00;5046854;28;20037;-72
2021/03/21 02:45:23;;;;;;;9.95;6.07;;;;;;;7.49;41.61;101856.25;5053560;28;20119;-72
2021/03/21 02:47:51;;;;;;;10.68;6.03;;;;;;;7.48;40.61;101858.13;5048930;28;20049;-72
2021/03/21 02:50:24;;;;;;;9.18;5.70;;;;;;;7.48;41.07;101849.97;5050826;28;20546;-72
2021/03/21 02:52:57;;;;;;;9.13;5.70;;;;;;;7.46;41.33;101837.41;5046235;28;20076;-72
2021/03/21 02:55:29;;;;;;;9.15;5.38;;;;;;;7.45;41.55;101852.84;5029183;28;20496;-73
2021/03/21 02:58:02;;;;;;;8.25;5.13;;;;;;;7.45;41.28;101857.41;5042560;28;20044;-72
2021/03/21 03:00:34;;;;;;;8.98;5.80;;;;;;;7.44;41.37;101839.31;5045924;28;20041;-73
2021/03/21 03:03:07;;;;;;;7.82;4.70;;;;;;;7.44;41.81;101842.03;5040907;28;20096;-73
2021/03/21 03:05:39;;;;;;;8.82;5.25;;;;;;;7.45;41.29;101838.34;5044802;28;20156;-72
2021/03/21 03:08:11;;;;;;;9.60;5.68;;;;;;;7.44;41.59;101839.31;5032482;28;20041;-72
2021/03/21 03:10:45;;;;;;;9.88;6.05;;;;;;;7.42;41.11;101822.19;5046037;28;20049;-72
2021/03/21 03:13:18;;;;;;;9.32;5.60;;;;;;;7.43;41.91;101821.22;5047173;28;20045;-72
2021/03/21 03:15:46;;;;;;;12.02;6.95;;;;;;;7.39;41.36;101826.00;5052517;28;20603;-72
2021/03/21 03:18:27;;;;;;;11.60;7.00;;;;;;;7.43;42.33;101823.94;5048107;28;20048;-72
2021/03/21 03:21:04;;;;;;;12.68;7.85;;;;;;;7.42;42.01;101827.63;5040374;28;20516;-72
2021/03/21 03:23:36;;;;;;;14.00;8.68;;;;;;;7.41;42.02;101825.88;5052029;28;20044;-73
2021/03/21 03:26:07;;;;;;;15.65;9.40;;;;;;;7.39;41.61;101836.00;5033640;28;20068;-72
2021/03/21 03:28:43;;;;;;;14.07;8.63;;;;;;;7.42;42.10;101827.63;5026523;28;20048;-73
2021/03/21 03:31:16;;;;;;;13.00;7.35;;;;;;;7.41;42.03;101824.03;5054502;28;20075;-72
2021/03/21 03:33:44;;;;;;;;;;;;;;;7.14;42.83;101827.47;5047088;28;20037;-72
2021/03/21 03:36:13;;;;;;;14.02;7.60;;;;;;;7.34;41.21;101821.75;5048789;28;20022;-73
2021/03/21 03:38:42;;;;;;;11.25;6.93;;;;;;;7.36;41.53;101819.81;5043007;28;20407;-72
2021/03/21 03:41:29;;;;;;;12.70;7.07;;;;;;;7.36;42.55;101822.56;5045471;28;20048;-73
2021/03/21 03:44:03;;;;;;;11.05;6.60;;;;;;;7.35;42.43;101828.97;5046029;28;20098;-73
2021/03/21 03:46:38;;;;;;;9.68;5.95;;;;;;;7.35;42.14;101834.41;5049469;28;20049;-72
2021/03/21 03:49:19;;;;;;;9.75;5.70;;;;;;;7.35;42.61;101838.00;5036305;28;20045;-72
2021/03/21 03:52:01;;;;;;;8.23;4.88;;;;;;;7.34;42.56;101824.47;5022299;28;20041;-73
2021/03/21 03:54:32;;;;;;;8.20;4.78;;;;;;;7.29;41.68;101826.59;5014434;28;20063;-73
2021/03/21 03:57:07;;;;;;;9.07;5.20;;;;;;;7.33;42.48;101825.44;5045149;28;20499;-72
2021/03/21 03:59:59;;;;;;;7.38;4.25;;;;;;;7.32;42.54;101821.00;5046775;28;20428;-72
2021/03/21 04:02:39;;;;;;;7.95;4.43;;;;;;;7.32;42.42;101823.72;5053067;28;20116;-72
2021/03/21 04:05:16;;;;;;;7.40;4.55;;;;;;;7.30;42.53;101818.34;5036885;28;20130;-72
2021/03/21 04:07:48;;;;;;;7.78;4.70;;;;;;;7.31;42.07;101817.38;5039701;28;20106;-72
2021/03/21 04:10:20;;;;;;;9.02;5.15;;;;;;;7.30;42.66;101810.19;5033893;28;20140;-72
2021/03/21 04:13:00;;;;;;;6.80;4.18;;;;;;;7.28;42.85;101803.06;5046162;28;20503;-72
2021/03/21 04:15:33;;;;;;;7.57;4.65;;;;;;;7.28;42.56;101795.78;5045390;28;20029;-72
2021/03/21 04:18:07;;;;;;;7.90;4.60;;;;;;;7.28;42.94;101803.06;5046263;28;20045;-73
2021/03/21 04:20:38;;;;;;;7.20;4.43;;;;;;;7.26;42.10;101799.53;5046679;28;20052;-72
2021/03/21 04:23:11;;;;;;;7.32;4.20;;;;;;;7.26;42.53;101804.97;5042848;28;20041;-72
2021/03/21 04:25:46;;;;;;;7.90;4.50;;;;;;;7.26;43.09;101805.88;5028739;28;20124;-73
2021/03/21 04:28:19;;;;;;;8.38;4.40;;;;;;;7.25;42.81;101804.09;5057610;28;20124;-72
2021/03/21 04:30:51;;;;;;;7.05;4.00;;;;;;;7.24;42.88;101805.06;5035659;28;20048;-73
2021/03/21 04:33:25;;;;;;;6.95;4.05;;;;;;;7.25;42.92;101808.66;5052666;28;20037;-72
2021/03/21 04:35:57;;;;;;;7.40;4.32;;;;;;;7.23;42.77;101811.50;5051901;28;20048;-72
2021/03/21 04:38:30;;;;;;;6.65;3.95;;;;;;;7.24;43.10;101807.78;5042258;28;20040;-73
2021/03/21 04:40:58;;;;;;;;;;;;;;;6.97;43.64;101810.22;5030463;28;20037;-73
2021/03/21 04:43:30;;;;;;;7.47;3.90;;;;;;;7.19;43.22;101806.31;5044928;28;20004;-73
2021/03/21 04:46:02;;;;;;;8.60;4.78;;;;;;;7.20;42.97;101816.22;5031208;28;20048;-73
2021/03/21 04:48:30;;;;;;;6.95;3.97;;;;;;;7.21;42.61;101810.72;5042868;28;20052;-72
2021/03/21 04:51:01;;;;;;;7.40;4.13;;;;;;;7.21;43.13;101813.44;5035135;28;20405;-72
2021/03/21 04:53:39;;;;;;;7.30;4.10;;;;;;;7.22;43.40;101817.91;5050534;28;20515;-73
2021/03/21 04:56:14;;;;;;;7.68;4.22;;;;;;;7.22;43.55;101803.44;5031121;28;20392;-73
2021/03/21 04:58:44;;;;;;;7.97;4.68;;;;;;;7.20;42.84;101799.91;5050848;28;20040;-73
2021/03/21 05:01:16;;;;;;;8.40;4.50;;;;;;;7.20;43.28;101794.47;5057303;28;20045;-73
2021/03/21 05:03:51;;;;;;;7.15;3.90;;;;;;;7.18;43.49;101788.22;5048580;28;20041;-73
2021/03/21 05:06:33;;;;;;;7.25;4.15;;;;;;;7.19;43.43;101789.97;5043559;28;20064;-74
2021/03/21 05:09:06;;;;;;;7.30;4.35;;;;;;;7.18;43.36;101782.78;5044836;28;20049;-74
2021/03/21 05:11:37;;;;;;;8.13;4.38;;;;;;;7.18;43.34;101788.22;5030971;28;20072;-73
2021/03/21 05:14:14;;;;;;;8.60;4.75;;;;;;;7.18;43.47;101780.94;5035974;28;20033;-74
2021/03/21 05:16:54;;;;;;;9.02;4.40;;;;;;;7.20;44.34;101783.56;5038424;28;20041;-73
2021/03/21 05:19:27;;;;;;;8.20;4.38;;;;;;;7.19;43.73;101781.81;5040951;28;20037;-73
2021/03/21 05:22:00;;;;;;;8.20;4.17;;;;;;;7.17;43.51;101797.34;5038651;28;20041;-72
2021/03/21 05:24:35;;;;;;;7.60;4.15;;;;;;;7.19;43.92;101800.88;5048569;28;20464;-72
2021/03/21 05:27:06;;;;;;;9.27;4.63;;;;;;;7.18;43.55;101796.38;5046951;28;20128;-72
2021/03/21 05:29:42;;;;;;;8.48;4.70;;;;;;;7.18;44.21;101794.53;5047484;28;20095;-72
2021/03/21 05:32:11;;;;;;;7.60;4.00;;;;;;;7.17;43.63;101790.06;5034615;28;20603;-72
2021/03/21 05:34:40;;;;;;;6.97;3.90;;;;;;;7.17;43.52;101786.47;5048069;28;20109;-72
2021/03/21 05:37:21;;;;;;;8.85;4.22;;;;;;;7.19;44.72;101788.13;5039731;28;20148;-72
2021/03/21 05:39:57;;;;;;;8.60;4.47;;;;;;;7.17;44.22;101778.31;5041526;28;20045;-72
2021/03/21 05:43:10;;;;;;;7.60;4.47;;;;;;;7.16;45.21;101784.72;5050664;28;20041;-72
2021/03/21 05:46:20;;;;;;;8.20;4.18;;;;;;;7.14;44.89;101778.50;5048034;28;20045;-72
2021/03/21 05:49:05;;;;;;;9.13;4.97;;;;;;;7.15;44.87;101782.97;5033347;28;20052;-72
2021/03/21 05:52:08;;;;;;;8.35;4.75;;;;;;;7.13;45.26;101774.00;5031603;28;20045;-72
2021/03/21 05:55:08;;;;;;;8.10;4.30;;;;;;;7.11;44.97;101772.25;5034001;28;20056;-72
2021/03/21 05:58:22;;;;;;;10.30;5.28;;;;;;;7.11;45.37;101776.81;5035334;28;20056;-72
2021/03/21 06:01:43;;;;;;;8.73;5.00;;;;;;;7.05;45.88;101774.47;5050185;28;20040;-72
2021/03/21 06:04:59;;;;;;;8.50;4.60;;;;;;;7.02;45.36;101756.41;5032720;28;20112;-72
2021/03/21 06:08:18;;;;;;;7.70;4.75;;;;;;;7.06;45.07;101760.78;5049194;28;20166;-72
2021/03/21 06:11:13;;;;;;;7.40;3.97;;;;;;;7.04;45.59;101789.00;4997215;28;20056;-71
2021/03/21 06:13:49;;;;;;;8.10;4.35;;;;;;;7.05;44.48;101779.91;5000915;28;20073;-72
2021/03/21 06:16:37;;;;;;;9.18;5.15;;;;;;;7.06;45.72;101784.38;5040864;28;20045;-71
2021/03/21 06:19:42;;;;;;;7.88;4.30;;;;;;;7.04;45.77;101765.41;5037039;28;20045;-71
2021/03/21 06:22:34;;;;;;;7.95;4.15;;;;;;;7.03;46.06;101779.94;5055391;28;20049;-71
2021/03/21 06:25:22;;;;;;;7.68;4.32;;;;;;;7.04;45.81;101780.81;5060994;28;20040;-71
2021/03/21 06:28:12;;;;;;;9.43;4.65;;;;;;;7.05;46.00;101791.66;5047730;28;20041;-71
2021/03/21 06:31:25;;;;;;;9.40;5.22;;;;;;;7.04;46.38;101791.72;5042925;28;20033;-71
2021/03/21 06:33:58;;;;;;;9.27;4.72;;;;;;;7.02;45.35;101786.34;5046525;28;20064;-71
2021/03/21 06:36:36;;;;;;;10.35;5.35;;;;;;;7.05;45.81;101785.34;5041164;28;20092;-71
2021/03/21 06:39:21;;;;;;;9.15;5.35;;;;;;;7.07;46.29;101783.41;5048916;28;20472;-71
2021/03/21 06:42:20;;;;;;;9.40;5.47;;;;;;;7.07;46.29;101789.75;5035928;28;20059;-71
2021/03/21 06:45:11;;;;;;;9.32;5.20;;;;;;;7.08;46.01;101790.59;5047026;28;20037;-70
2021/03/21 06:48:08;;;;;;;10.55;5.28;;;;;;;7.07;46.35;101777.97;5028632;28;20041;-70
2021/03/21 06:50:57;;;;;;;10.35;5.30;;;;;;;7.08;46.26;101771.53;5036468;28;20112;-71
2021/03/21 06:53:35;;;;;;;9.90;5.55;;;;;;;7.08;46.10;101775.13;5056328;28;20041;-71
2021/03/21 06:56:30;;;;;;;9.82;5.70;;;;;;;7.10;46.40;101781.38;5045404;28;20064;-72
2021/03/21 06:59:26;;;;;;;9.98;5.63;;;;;;;7.10;46.42;101784.09;5052061;28;20040;-71
2021/03/21 07:02:31;;;;;;;10.98;6.18;;;;;;;7.11;46.38;101788.59;5054054;28;20045;-71
2021/03/21 07:05:33;;;;;;;10.05;5.40;;;;;;;7.12;46.58;101781.31;5043070;28;20063;-72
2021/03/21 07:09:02;;;;;;;10.18;5.68;;;;;;;7.07;46.70;101797.91;5049072;28;20040;-71
2021/03/21 07:12:10;;;;;;;10.73;5.60;;;;;;;7.12;46.65;101811.22;5014960;28;20130;-71
2021/03/21 07:15:18;;;;;;;9.57;5.20;;;;;;;7.11;46.49;101814.91;5036510;28;20052;-72
2021/03/21 07:18:22;;;;;;;9.10;5.25;;;;;;;7.15;46.55;101805.63;5053768;28;20047;-72
2021/03/21 07:21:22;;;;;;;10.25;5.50;;;;;;;7.17;46.40;101794.63;5067982;28;20048;-72
2021/03/21 07:24:26;;;;;;;9.68;5.47;;;;;;;7.20;46.50;101799.91;5029193;28;20040;-71
2021/03/21 07:27:14;;;;;;;9.63;5.57;;;;;;;7.21;46.62;101793.50;5048232;28;20041;-71
2021/03/21 07:29:46;;;;;;;11.27;6.18;;;;;;;7.22;45.38;101801.59;5053778;28;20051;-71
2021/03/21 07:32:55;;;;;;;11.32;5.95;;;;;;;7.25;46.42;101800.50;5055312;28;20039;-71
2021/03/21 07:35:48;;;;;;;9.27;5.40;;;;;;;7.24;46.83;101807.78;5044785;28;20500;-72
2021/03/21 07:38:28;;;;;;;10.40;4.97;;;;;;;7.25;46.11;101808.66;5031464;28;20053;-72
2021/03/21 07:41:03;;;;;;;9.68;5.25;;;;;;;7.28;45.96;101814.84;5046923;28;20314;-72
2021/03/21 07:44:09;;;;;;;8.77;5.28;;;;;;;7.25;46.65;101815.00;5042982;28;20052;-72
2021/03/21 07:46:45;;;;;;;9.80;5.20;;;;;;;7.30;46.13;101817.47;5049094;28;20464;-71
2021/03/21 07:49:42;;;;;;;8.25;4.75;;;;;;;7.34;46.42;101811.75;5052693;28;20049;-71
2021/03/21 07:52:36;;;;;;;8.48;4.63;;;;;;;7.35;46.45;101816.22;5045811;28;20419;-71
2021/03/21 07:55:11;;;;;;;9.77;5.35;;;;;;;7.35;45.74;101824.41;5054388;28;20056;-70
2021/03/21 07:58:02;;;;;;;7.82;4.40;;;;;;;7.39;46.49;101830.56;5044803;28;20045;-70
2021/03/21 08:00:30;;;;;;;9.25;4.32;;;;;;;7.37;45.35;101836.09;5036667;28;20071;-69
2021/03/21 08:03:20;;;;;;;7.20;4.22;;;;;;;7.42;46.53;101830.34;5053214;28;20384;-70
2021/03/21 08:05:51;;;;;;;8.75;4.45;;;;;;;7.43;45.96;101818.50;5056246;28;20443;-70
2021/03/21 08:08:22;;;;;;;7.63;4.35;;;;;;;7.45;45.72;101813.84;5049823;28;20052;-70
2021/03/21 08:10:54;;;;;;;7.10;4.15;;;;;;;7.45;45.32;101816.56;5061850;28;20124;-70
2021/03/21 08:13:28;;;;;;;7.00;3.92;;;;;;;7.47;45.89;101817.38;5058655;28;20033;-70
2021/03/21 08:15:55;;;;;;;6.00;4.05;;;;;;;7.45;45.39;101809.28;5053686;28;20068;-69
2021/03/21 08:18:30;;;;;;;7.43;3.75;;;;;;;7.49;46.16;101821.75;5049706;28;20558;-69
2021/03/21 08:20:59;;;;;;;7.00;3.65;;;;;;;7.48;45.52;101820.00;5055336;28;20504;-69
2021/03/21 08:23:32;;;;;;;6.82;3.80;;;;;;;7.50;46.19;101819.91;5053036;28;20057;-70
2021/03/21 08:26:01;;;;;;;8.10;3.70;;;;;;;7.49;45.50;101820.88;5052734;28;20587;-70
2021/03/21 08:28:36;;;;;;;6.05;3.33;;;;;;;7.50;45.81;101822.63;5053134;28;20049;-70
2021/03/21 08:31:06;;;;;;;6.22;3.10;;;;;;;7.51;45.75;101832.53;5046283;28;20392;-70
2021/03/21 08:33:37;;;;;;;5.80;3.50;;;;;;;7.50;45.55;101826.22;5059891;28;20064;-70
2021/03/21 08:36:15;;;;;;;5.95;2.83;;;;;;;7.53;46.17;101832.47;5052851;28;20044;-70
2021/03/21 08:38:57;;;;;;;5.78;2.78;;;;;;;7.52;46.28;101837.03;5051919;28;20045;-70
2021/03/21 08:41:25;;;;;;;5.70;2.72;;;;;;;7.52;45.30;101850.63;5035799;28;20400;-70
2021/03/21 08:44:02;;;;;;;5.32;2.83;;;;;;;7.54;46.17;101842.41;5052916;28;20401;-70
2021/03/21 08:46:31;;;;;;;5.82;2.70;;;;;;;7.53;45.42;101849.69;5027769;28;20044;-71
2021/03/21 08:49:17;;;;;;;3.92;2.03;;;;;;;7.56;46.03;101840.47;5059940;28;20358;-71
2021/03/21 08:51:46;;;;;;;4.55;2.05;;;;;;;7.52;45.37;101834.31;5050758;28;20059;-71
2021/03/21 08:54:24;;;;;;;3.17;1.80;;;;;;;7.56;46.02;101833.19;5061966;28;20040;-71
2021/03/21 08:57:00;;;;;;;4.20;2.00;;;;;;;7.56;45.60;101838.63;5056658;28;20052;-71
2021/03/21 08:59:39;;;;;;;3.90;1.60;;;;;;;7.58;45.62;101849.41;5052932;28;20086;-71
2021/03/21 09:02:14;;;;;;;3.15;1.75;;;;;;;7.56;45.50;101841.34;5065636;28;20083;-71
2021/03/21 09:04:44;;;;;;;4.88;1.80;;;;;;;7.56;45.18;101848.63;5034524;28;20052;-71
2021/03/21 09:07:21;;;;;;;4.45;1.70;;;;;;;7.58;45.50;101847.56;5064525;28;20052;-71
2021/03/21 09:10:09;;;;;;;3.72;1.70;;;;;;;7.58;45.71;101850.28;5052515;28;20033;-71
2021/03/21 09:12:40;;;;;;;4.50;2.22;;;;;;;7.58;45.33;101861.16;5052185;28;20037;-71
2021/03/21 09:15:36;;;;;;;3.50;1.73;;;;;;;7.56;45.90;101856.81;5031258;28;20416;-71
2021/03/21 09:18:21;;;;;;;3.90;1.90;;;;;;;7.61;45.74;101843.78;5034682;28;20041;-71
2021/03/21 09:21:06;;;;;;;5.22;1.90;;;;;;;7.61;45.51;101839.22;5051272;28;20041;-71
2021/03/21 09:23:39;;;;;;;5.28;1.90;;;;;;;7.60;45.28;101845.63;5052918;28;20040;-71
2021/03/21 09:26:26;;;;;;;6.22;2.20;;;;;;;7.59;45.18;101865.66;5066764;28;20040;-71
2021/03/21 09:29:08;;;;;;;4.73;1.80;;;;;;;7.58;44.80;101852.13;5054011;28;20048;-71
2021/03/21 09:31:36;;;;;;;6.75;1.92;;;;;;;7.59;44.49;101843.88;5052222;28;20290;-71
2021/03/21 09:34:11;;;;;;;4.18;1.60;;;;;;;7.61;44.47;101849.22;5051702;28;20460;-71
2021/03/21 09:36:42;;;;;;;;;;;;;;;7.35;45.23;101856.19;5052310;28;20037;-71
2021/03/21 09:39:15;;;;;;;4.80;1.30;;;;;;;7.56;44.37;101863.13;5051543;28;20314;-71
2021/03/21 09:41:47;;;;;;;5.45;1.30;;;;;;;7.58;44.15;101858.44;5034263;28;20048;-71
2021/03/21 09:44:37;;;;;;;4.70;1.50;;;;;;;7.58;44.05;101854.84;5051383;28;20040;-71
2021/03/21 09:47:20;;;;;;;4.57;1.65;;;;;;;7.59;43.91;101860.22;5048110;28;20118;-71
2021/03/21 09:49:50;;;;;;;5.43;1.57;;;;;;;7.57;43.56;101866.72;5045932;28;20060;-71
2021/03/21 09:52:32;;;;;;;5.18;1.77;;;;;;;7.60;43.64;101878.31;5058793;28;20041;-71
2021/03/21 09:55:13;;;;;;;5.32;2.08;;;;;;;7.60;43.50;101863.81;5058472;28;20044;-71
2021/03/21 09:57:59;;;;;;;3.90;1.43;;;;;;;7.59;43.50;101871.09;5051522;28;20516;-70
2021/03/21 10:00:32;;;;;;;4.88;1.52;;;;;;;7.60;43.37;101870.13;5050926;28;20053;-69
2021/03/21 10:03:03;;;;;;;4.35;1.80;;;;;;;7.61;43.51;101862.84;5050578;28;20040;-70
2021/03/21 10:05:38;;;;;;;5.10;1.75;;;;;;;7.62;43.30;101860.03;5050637;28;20072;-70
2021/03/21 10:08:16;;;;;;;3.67;1.88;;;;;;;7.64;43.30;101855.38;5053698;28;20041;-70
2021/03/21 10:10:52;;;;;;;6.75;1.65;;;;;;;7.63;43.50;101859.06;5051192;28;20068;-70
2021/03/21 10:13:31;;;;;;;5.72;2.03;;;;;;;7.64;43.06;101858.13;5058136;28;20041;-70
2021/03/21 10:16:32;;;;;;;6.90;1.85;;;;;;;7.61;43.31;101858.28;5033901;28;20055;-70
2021/03/21 10:19:00;;;;;;;6.35;1.65;;;;;;;7.62;42.82;101851.88;5032753;28;20672;-70
2021/03/21 10:21:35;;;;;;;5.68;1.90;;;;;;;7.66;42.93;101864.31;5055063;28;20130;-70
2021/03/21 10:24:31;;;;;;;6.75;1.75;;;;;;;7.63;42.75;101860.91;5034211;28;20120;-70
2021/03/21 10:27:42;;;;;;;6.97;1.60;;;;;;;7.61;42.58;101847.38;5054745;28;20133;-70
2021/03/21 10:30:28;;;;;;;7.72;1.60;;;;;;;7.64;42.38;101844.50;5041386;28;20040;-70
2021/03/21 10:33:30;;;;;;;10.15;2.50;;;;;;;7.63;42.26;101847.31;5054732;28;20045;-70
2021/03/21 10:35:58;;;;;;;6.18;1.60;;;;;;;7.64;42.61;101854.50;5020819;28;20110;-70
2021/03/21 10:38:50;;;;;;;6.63;1.90;;;;;;;7.65;42.16;101846.25;5033976;28;20033;-70
2021/03/21 10:41:56;;;;;;;5.80;2.00;;;;;;;7.67;41.89;101860.63;5051431;28;20041;-70
2021/03/21 10:44:56;;;;;;;5.90;1.80;;;;;;;7.69;42.06;101864.16;5055443;28;20033;-70
2021/03/21 10:47:50;;;;;;;7.35;1.88;;;;;;;7.71;41.63;101861.34;5054670;28;20045;-71
2021/03/21 10:50:50;;;;;;;8.95;2.15;;;;;;;7.73;41.57;101863.03;5054378;28;20091;-70
2021/03/21 10:53:23;;;;;;;10.00;2.22;;;;;;;7.77;41.78;101861.88;5034008;28;20041;-70
2021/03/21 10:56:18;;;;;;;7.93;2.55;;;;;;;7.77;42.00;101874.59;5054602;28;20049;-70
2021/03/21 10:59:08;;;;;;;4.78;1.90;;;;;;;7.81;41.65;101868.03;5015483;28;21544;-70
2021/03/21 11:01:40;;;;;;;9.18;2.05;;;;;;;7.86;41.63;101877.66;5053178;28;20044;-70
2021/03/21 11:04:28;;;;;;;5.70;1.85;;;;;;;7.88;41.72;101881.19;5054071;28;20025;-70
2021/03/21 11:06:59;;;;;;;6.63;2.38;;;;;;;7.93;42.04;101885.47;5053351;28;20076;-70
2021/03/21 11:09:31;;;;;;;6.40;2.08;;;;;;;7.96;41.83;101885.31;5039222;28;20044;-71
2021/03/21 11:12:02;;;;;;;7.97;1.95;;;;;;;7.97;41.56;101882.50;5054826;28;20094;-71
2021/03/21 11:14:35;;;;;;;8.23;2.13;;;;;;;8.01;41.38;101878.59;5036555;28;20049;-70
2021/03/21 11:17:13;;;;;;;6.25;1.95;;;;;;;8.02;41.50;101874.91;5054113;28;20123;-70
2021/03/21 11:19:47;;;;;;;6.50;2.05;;;;;;;8.06;41.28;101876.50;5050883;28;20098;-70
2021/03/21 11:22:28;;;;;;;6.60;1.58;;;;;;;8.09;41.15;101876.28;5054139;28;20036;-71
2021/03/21 11:24:56;;;;;;;9.57;1.85;;;;;;;8.08;41.51;101870.94;5060353;28;20037;-70
2021/03/21 11:27:30;;;;;;;10.02;1.98;;;;;;;8.12;40.91;101880.69;5054239;28;20504;-71
2021/03/21 11:30:11;;;;;;;7.30;2.10;;;;;;;8.13;40.56;101874.28;5067514;28;20048;-70
2021/03/21 11:32:38;;;;;;;8.10;2.00;;;;;;;8.11;40.97;101877.09;5054220;28;20510;-71
2021/03/21 11:35:13;;;;;;;9.02;2.40;;;;;;;8.14;40.52;101879.66;5041855;28;20442;-71
2021/03/21 11:37:42;;;;;;;8.63;2.72;;;;;;;8.14;40.69;101884.22;5040441;28;20049;-70
2021/03/21 11:40:17;;;;;;;9.30;2.38;;;;;;;8.16;39.99;101879.53;5031975;28;20076;-70
2021/03/21 11:42:46;;;;;;;8.80;1.80;;;;;;;8.15;40.66;101880.50;5054633;28;20040;-70
2021/03/21 11:45:18;;;;;;;11.35;2.75;;;;;;;8.16;40.14;101868.63;5058843;28;20047;-71
2021/03/21 11:47:47;;;;;;;7.47;2.42;;;;;;;8.16;40.37;101874.97;5053730;28;20044;-71
2021/03/21 11:50:20;;;;;;;9.93;2.33;;;;;;;8.17;39.68;101878.56;5048624;28;20055;-71
2021/03/21 11:52:48;;;;;;;10.13;3.28;;;;;;;8.15;40.11;101872.31;5036508;28;20044;-71
2021/03/21 11:55:17;;;;;;;8.00;2.08;;;;;;;8.17;40.26;101867.66;5053150;28;20040;-71
2021/03/21 11:58:00;;;;;;;7.57;2.40;;;;;;;8.19;39.35;101873.91;5053440;28;20053;-71
2021/03/21 12:00:31;;;;;;;7.65;2.00;;;;;;;8.17;40.12;101865.81;5051309;28;20095;-71
2021/03/21 12:03:04;;;;;;;7.90;2.35;;;;;;;8.19;40.01;101871.19;5035552;28;20072;-71
2021/03/21 12:05:35;;;;;;;8.00;2.40;;;;;;;8.18;39.88;101864.84;5035416;28;20045;-70
2021/03/21 12:08:24;;;;;;;9.73;2.65;;;;;;;8.19;39.56;101863.00;5035411;28;20107;-70
2021/03/21 12:10:57;;;;;;;12.95;2.63;;;;;;;8.19;40.02;101860.28;5065120;28;20037;-70
2021/03/21 12:13:40;;;;;;;12.30;2.92;;;;;;;8.24;38.92;101869.03;5035175;28;20123;-70
2021/03/21 12:16:37;;;;;;;7.55;2.47;;;;;;;8.20;38.98;101865.63;5039620;28;20069;-69
2021/03/21 12:19:07;;;;;;;8.23;3.03;;;;;;;8.25;39.72;101868.06;5057149;28;20052;-70
2021/03/21 12:21:38;;;;;;;8.57;2.30;;;;;;;8.29;39.50;101863.31;5063375;28;20454;-70
2021/03/21 12:24:13;;;;;;;9.48;2.22;;;;;;;8.30;39.71;101868.69;5035275;28;20037;-70